sensor_id;sensor_type;location;lat;lon;timestamp;temperature;humidity
2623;DHT22;1321;48.690;9.022;2022-09-20T00:01:16;9.40;99.90
2623;DHT22;1321;48.690;9.022;2022-09-20T00:03:49;9.30;1.00
2623;DHT22;1321;48.690;9.022;2022-09-20T00:06:19;9.40;1.00
2623;DHT22;1321;48.690;9.022;2022-09-20T00:08:48;9.40;1.00
2623;DHT22;1321;48.690;9.022;2022-09-20T00:11:18;9.50;99.90
2623;DHT22;1321;48.690;9.022;2022-09-20T00:13:48;9.40;99.90
2623;DHT22;1321;48.690;9.022;2022-09-20T00:16:19;9.50;1.00
2623;DHT22;1321;48.690;9.022;2022-09-20T00:18:50;9.40;1.00
2623;DHT22;1321;48.690;9.022;2022-09-20T00:21:20;9.30;99.90
2623;DHT22;1321;48.690;9.022;2022-09-20T00:23:50;9.20;99.90
2623;DHT22;1321;48.690;9.022;2022-09-20T00:26:18;9.30;1.00
2623;DHT22;1321;48.690;9.022;2022-09-20T00:28:47;9.20;99.90
2623;DHT22;1321;48.690;9.022;2022-09-20T00:31:15;9.20;24.00
2623;DHT22;1321;48.690;9.022;2022-09-20T00:33:43;9.20;1.00
2623;DHT22;1321;48.690;9.022;2022-09-20T00:36:30;9.20;38.30
2623;DHT22;1321;48.690;9.022;2022-09-20T00:38:59;9.20;99.90
2623;DHT22;1321;48.690;9.022;2022-09-20T00:41:29;9.10;1.00
2623;DHT22;1321;48.690;9.022;2022-09-20T00:43:58;9.20;99.90
2623;DHT22;1321;48.690;9.022;2022-09-20T00:46:31;9.00;99.90
2623;DHT22;1321;48.690;9.022;2022-09-20T00:49:11;9.00;1.00
2623;DHT22;1321;48.690;9.022;2022-09-20T00:51:44;9.00;99.90
2623;DHT22;1321;48.690;9.022;2022-09-20T00:54:15;9.00;99.90
2623;DHT22;1321;48.690;9.022;2022-09-20T00:56:46;9.00;1.00
2623;DHT22;1321;48.690;9.022;2022-09-20T00:59:17;9.00;99.90
2623;DHT22;1321;48.690;9.022;2022-09-20T01:01:49;9.00;99.90
2623;DHT22;1321;48.690;9.022;2022-09-20T01:04:22;9.10;1.00
2623;DHT22;1321;48.690;9.022;2022-09-20T01:06:56;9.10;99.90
2623;DHT22;1321;48.690;9.022;2022-09-20T01:09:26;9.10;99.90
2623;DHT22;1321;48.690;9.022;2022-09-20T01:11:56;9.00;99.90
2623;DHT22;1321;48.690;9.022;2022-09-20T01:14:25;9.00;1.00
2623;DHT22;1321;48.690;9.022;2022-09-20T01:16:55;8.90;99.90
2623;DHT22;1321;48.690;9.022;2022-09-20T01:19:30;9.00;99.90
2623;DHT22;1321;48.690;9.022;2022-09-20T01:22:08;9.20;97.50
2623;DHT22;1321;48.690;9.022;2022-09-20T01:24:43;9.10;99.90
2623;DHT22;1321;48.690;9.022;2022-09-20T01:27:20;9.10;99.90
2623;DHT22;1321;48.690;9.022;2022-09-20T01:29:59;9.10;1.00
2623;DHT22;1321;48.690;9.022;2022-09-20T01:32:37;8.90;1.00
2623;DHT22;1321;48.690;9.022;2022-09-20T01:35:08;8.80;1.00
2623;DHT22;1321;48.690;9.022;2022-09-20T01:37:46;8.90;1.00
2623;DHT22;1321;48.690;9.022;2022-09-20T01:40:22;8.90;1.00
2623;DHT22;1321;48.690;9.022;2022-09-20T01:42:58;8.70;1.00
2623;DHT22;1321;48.690;9.022;2022-09-20T01:45:32;8.70;99.90
2623;DHT22;1321;48.690;9.022;2022-09-20T01:48:08;8.70;1.00
2623;DHT22;1321;48.690;9.022;2022-09-20T01:50:51;8.70;99.90
2623;DHT22;1321;48.690;9.022;2022-09-20T01:56:53;8.70;99.90
2623;DHT22;1321;48.690;9.022;2022-09-20T01:59:50;8.70;95.10
2623;DHT22;1321;48.690;9.022;2022-09-20T02:03:19;8.90;1.00
2623;DHT22;1321;48.690;9.022;2022-09-20T02:06:07;8.80;1.00
2623;DHT22;1321;48.690;9.022;2022-09-20T02:08:55;8.70;92.10
2623;DHT22;1321;48.690;9.022;2022-09-20T02:11:40;8.70;1.00
2623;DHT22;1321;48.690;9.022;2022-09-20T02:14:27;8.70;1.00
2623;DHT22;1321;48.690;9.022;2022-09-20T02:17:01;8.50;1.00
2623;DHT22;1321;48.690;9.022;2022-09-20T02:19:45;8.60;1.00
2623;DHT22;1321;48.690;9.022;2022-09-20T02:22:30;8.60;99.90
2623;DHT22;1321;48.690;9.022;2022-09-20T02:25:22;8.50;99.90
2623;DHT22;1321;48.690;9.022;2022-09-20T02:28:04;8.50;99.90
2623;DHT22;1321;48.690;9.022;2022-09-20T02:30:46;8.50;1.00
2623;DHT22;1321;48.690;9.022;2022-09-20T02:33:28;8.60;7.40
2623;DHT22;1321;48.690;9.022;2022-09-20T02:36:20;8.60;1.00
2623;DHT22;1321;48.690;9.022;2022-09-20T02:38:58;8.60;99.90
2623;DHT22;1321;48.690;9.022;2022-09-20T02:41:51;8.60;99.90
2623;DHT22;1321;48.690;9.022;2022-09-20T02:44:28;8.60;1.00
2623;DHT22;1321;48.690;9.022;2022-09-20T02:47:09;8.70;99.90
2623;DHT22;1321;48.690;9.022;2022-09-20T02:49:51;8.90;99.90
2623;DHT22;1321;48.690;9.022;2022-09-20T02:52:29;8.80;1.00
2623;DHT22;1321;48.690;9.022;2022-09-20T02:55:04;8.80;99.90
2623;DHT22;1321;48.690;9.022;2022-09-20T02:57:42;8.70;99.90
2623;DHT22;1321;48.690;9.022;2022-09-20T03:00:15;8.50;1.00
2623;DHT22;1321;48.690;9.022;2022-09-20T03:02:59;8.40;1.00
2623;DHT22;1321;48.690;9.022;2022-09-20T03:05:36;8.40;99.90
2623;DHT22;1321;48.690;9.022;2022-09-20T03:08:28;8.50;99.90
2623;DHT22;1321;48.690;9.022;2022-09-20T03:11:06;8.40;99.90
2623;DHT22;1321;48.690;9.022;2022-09-20T03:13:49;8.50;99.90
2623;DHT22;1321;48.690;9.022;2022-09-20T03:16:27;8.30;99.90
2623;DHT22;1321;48.690;9.022;2022-09-20T03:19:05;8.30;99.90
2623;DHT22;1321;48.690;9.022;2022-09-20T03:21:50;8.50;99.90
2623;DHT22;1321;48.690;9.022;2022-09-20T03:24:32;8.40;1.00
2623;DHT22;1321;48.690;9.022;2022-09-20T03:27:15;8.40;1.00
2623;DHT22;1321;48.690;9.022;2022-09-20T03:29:54;8.40;1.00
2623;DHT22;1321;48.690;9.022;2022-09-20T03:32:38;8.40;99.90
2623;DHT22;1321;48.690;9.022;2022-09-20T03:35:21;8.30;1.00
2623;DHT22;1321;48.690;9.022;2022-09-20T03:38:07;8.40;1.00
2623;DHT22;1321;48.690;9.022;2022-09-20T03:41:10;8.40;99.90
2623;DHT22;1321;48.690;9.022;2022-09-20T03:43:55;8.50;99.90
2623;DHT22;1321;48.690;9.022;2022-09-20T03:46:29;8.60;1.00
2623;DHT22;1321;48.690;9.022;2022-09-20T03:52:08;8.60;1.00
2623;DHT22;1321;48.690;9.022;2022-09-20T03:54:56;8.60;99.90
2623;DHT22;1321;48.690;9.022;2022-09-20T03:57:45;8.50;99.90
2623;DHT22;1321;48.690;9.022;2022-09-20T04:00:22;8.50;99.90
2623;DHT22;1321;48.690;9.022;2022-09-20T04:03:12;8.50;99.90
2623;DHT22;1321;48.690;9.022;2022-09-20T04:05:58;8.60;1.00
2623;DHT22;1321;48.690;9.022;2022-09-20T04:08:41;8.60;1.00
2623;DHT22;1321;48.690;9.022;2022-09-20T04:11:19;8.70;99.90
2623;DHT22;1321;48.690;9.022;2022-09-20T04:13:57;8.60;1.00
2623;DHT22;1321;48.690;9.022;2022-09-20T04:16:42;8.70;99.90
2623;DHT22;1321;48.690;9.022;2022-09-20T04:19:16;8.80;99.90
2623;DHT22;1321;48.690;9.022;2022-09-20T04:21:50;8.90;99.90
2623;DHT22;1321;48.690;9.022;2022-09-20T04:24:24;8.90;1.00
2623;DHT22;1321;48.690;9.022;2022-09-20T04:26:58;8.80;99.90
2623;DHT22;1321;48.690;9.022;2022-09-20T04:29:37;8.80;1.00
2623;DHT22;1321;48.690;9.022;2022-09-20T04:32:14;8.80;1.00
2623;DHT22;1321;48.690;9.022;2022-09-20T04:34:50;8.80;29.60
2623;DHT22;1321;48.690;9.022;2022-09-20T04:37:39;8.80;30.00
2623;DHT22;1321;48.690;9.022;2022-09-20T04:40:22;8.80;29.70
2623;DHT22;1321;48.690;9.022;2022-09-20T04:46:22;8.90;1.00
2623;DHT22;1321;48.690;9.022;2022-09-20T04:49:31;9.10;1.00
2623;DHT22;1321;48.690;9.022;2022-09-20T04:55:48;9.20;1.00
2623;DHT22;1321;48.690;9.022;2022-09-20T04:58:39;9.20;48.00
2623;DHT22;1321;48.690;9.022;2022-09-20T05:01:28;9.20;87.00
2623;DHT22;1321;48.690;9.022;2022-09-20T05:07:40;9.20;99.90
2623;DHT22;1321;48.690;9.022;2022-09-20T05:13:43;9.20;1.00
2623;DHT22;1321;48.690;9.022;2022-09-20T05:16:26;9.20;1.00
2623;DHT22;1321;48.690;9.022;2022-09-20T05:19:14;9.10;1.00
2623;DHT22;1321;48.690;9.022;2022-09-20T05:21:51;9.00;99.90
2623;DHT22;1321;48.690;9.022;2022-09-20T05:24:35;9.10;99.90
2623;DHT22;1321;48.690;9.022;2022-09-20T05:27:21;9.10;99.90
2623;DHT22;1321;48.690;9.022;2022-09-20T05:30:01;8.90;68.90
2623;DHT22;1321;48.690;9.022;2022-09-20T05:32:38;8.90;99.90
2623;DHT22;1321;48.690;9.022;2022-09-20T05:35:17;9.00;1.00
2623;DHT22;1321;48.690;9.022;2022-09-20T05:37:53;9.00;99.90
2623;DHT22;1321;48.690;9.022;2022-09-20T05:40:30;8.90;28.20
2623;DHT22;1321;48.690;9.022;2022-09-20T05:43:08;8.90;99.90
2623;DHT22;1321;48.690;9.022;2022-09-20T05:45:55;8.90;99.90
2623;DHT22;1321;48.690;9.022;2022-09-20T05:48:37;8.90;68.50
2623;DHT22;1321;48.690;9.022;2022-09-20T05:51:13;9.00;68.20
2623;DHT22;1321;48.690;9.022;2022-09-20T05:54:17;9.20;99.90
2623;DHT22;1321;48.690;9.022;2022-09-20T05:56:54;9.10;99.90
2623;DHT22;1321;48.690;9.022;2022-09-20T05:59:33;9.20;99.90
2623;DHT22;1321;48.690;9.022;2022-09-20T06:02:17;9.30;99.90
2623;DHT22;1321;48.690;9.022;2022-09-20T06:04:58;9.40;67.90
2623;DHT22;1321;48.690;9.022;2022-09-20T06:07:36;9.40;99.90
2623;DHT22;1321;48.690;9.022;2022-09-20T06:10:35;9.50;99.90
2623;DHT22;1321;48.690;9.022;2022-09-20T06:13:18;9.40;99.90
2623;DHT22;1321;48.690;9.022;2022-09-20T06:15:55;9.50;99.90
2623;DHT22;1321;48.690;9.022;2022-09-20T06:18:28;9.70;99.90
2623;DHT22;1321;48.690;9.022;2022-09-20T06:21:08;9.70;99.90
2623;DHT22;1321;48.690;9.022;2022-09-20T06:23:40;9.60;99.90
2623;DHT22;1321;48.690;9.022;2022-09-20T06:26:13;9.70;99.90
2623;DHT22;1321;48.690;9.022;2022-09-20T06:28:46;9.80;99.90
2623;DHT22;1321;48.690;9.022;2022-09-20T06:31:16;9.80;99.90
2623;DHT22;1321;48.690;9.022;2022-09-20T06:33:48;9.80;99.90
2623;DHT22;1321;48.690;9.022;2022-09-20T06:36:22;9.80;99.90
2623;DHT22;1321;48.690;9.022;2022-09-20T06:39:15;10.00;99.90
2623;DHT22;1321;48.690;9.022;2022-09-20T06:42:04;10.10;99.90
2623;DHT22;1321;48.690;9.022;2022-09-20T06:44:36;10.20;99.90
2623;DHT22;1321;48.690;9.022;2022-09-20T06:47:08;10.30;99.90
2623;DHT22;1321;48.690;9.022;2022-09-20T06:49:37;10.40;99.90
2623;DHT22;1321;48.690;9.022;2022-09-20T06:52:12;10.40;99.90
2623;DHT22;1321;48.690;9.022;2022-09-20T06:54:41;10.50;99.90
2623;DHT22;1321;48.690;9.022;2022-09-20T06:57:13;10.50;99.90
2623;DHT22;1321;48.690;9.022;2022-09-20T06:59:43;10.60;1.00
2623;DHT22;1321;48.690;9.022;2022-09-20T07:02:11;10.60;27.00
2623;DHT22;1321;48.690;9.022;2022-09-20T07:04:39;10.60;99.90
2623;DHT22;1321;48.690;9.022;2022-09-20T07:07:15;10.80;99.90
2623;DHT22;1321;48.690;9.022;2022-09-20T07:09:44;10.70;99.90
2623;DHT22;1321;48.690;9.022;2022-09-20T07:12:13;10.80;1.00
2623;DHT22;1321;48.690;9.022;2022-09-20T07:14:41;10.70;60.20
2623;DHT22;1321;48.690;9.022;2022-09-20T07:17:10;10.70;1.00
2623;DHT22;1321;48.690;9.022;2022-09-20T07:19:38;10.60;99.90
2623;DHT22;1321;48.690;9.022;2022-09-20T07:22:07;10.60;99.90
2623;DHT22;1321;48.690;9.022;2022-09-20T07:24:36;10.70;98.60
2623;DHT22;1321;48.690;9.022;2022-09-20T07:27:06;10.70;1.00
2623;DHT22;1321;48.690;9.022;2022-09-20T07:29:35;10.70;99.90
2623;DHT22;1321;48.690;9.022;2022-09-20T07:32:03;10.80;1.00
2623;DHT22;1321;48.690;9.022;2022-09-20T07:34:31;10.80;99.90
2623;DHT22;1321;48.690;9.022;2022-09-20T07:36:59;10.80;99.90
2623;DHT22;1321;48.690;9.022;2022-09-20T07:39:28;10.90;1.00
2623;DHT22;1321;48.690;9.022;2022-09-20T07:41:57;11.10;1.00
2623;DHT22;1321;48.690;9.022;2022-09-20T07:44:26;11.50;99.90
2623;DHT22;1321;48.690;9.022;2022-09-20T07:46:56;11.90;1.00
2623;DHT22;1321;48.690;9.022;2022-09-20T07:49:25;12.20;1.00
2623;DHT22;1321;48.690;9.022;2022-09-20T07:51:56;12.40;99.90
2623;DHT22;1321;48.690;9.022;2022-09-20T07:54:24;12.60;1.00
2623;DHT22;1321;48.690;9.022;2022-09-20T07:56:53;12.70;99.90
2623;DHT22;1321;48.690;9.022;2022-09-20T07:59:23;12.80;99.90
2623;DHT22;1321;48.690;9.022;2022-09-20T08:01:51;12.90;99.90
2623;DHT22;1321;48.690;9.022;2022-09-20T08:04:19;13.40;1.00
2623;DHT22;1321;48.690;9.022;2022-09-20T08:06:47;13.60;99.90
2623;DHT22;1321;48.690;9.022;2022-09-20T08:09:15;13.70;99.90
2623;DHT22;1321;48.690;9.022;2022-09-20T08:11:45;13.80;99.90
2623;DHT22;1321;48.690;9.022;2022-09-20T08:14:15;14.00;1.00
2623;DHT22;1321;48.690;9.022;2022-09-20T08:16:47;14.20;1.00
2623;DHT22;1321;48.690;9.022;2022-09-20T08:19:17;14.40;1.00
2623;DHT22;1321;48.690;9.022;2022-09-20T08:21:47;14.60;1.00
2623;DHT22;1321;48.690;9.022;2022-09-20T08:24:17;14.90;1.00
2623;DHT22;1321;48.690;9.022;2022-09-20T08:26:46;15.10;1.00
2623;DHT22;1321;48.690;9.022;2022-09-20T08:29:15;15.30;99.90
2623;DHT22;1321;48.690;9.022;2022-09-20T08:31:43;15.50;99.90
2623;DHT22;1321;48.690;9.022;2022-09-20T08:34:14;15.70;99.90
2623;DHT22;1321;48.690;9.022;2022-09-20T08:36:44;15.80;99.90
2623;DHT22;1321;48.690;9.022;2022-09-20T08:39:13;15.80;99.90
2623;DHT22;1321;48.690;9.022;2022-09-20T08:42:09;15.60;99.90
2623;DHT22;1321;48.690;9.022;2022-09-20T08:44:46;15.70;99.90
2623;DHT22;1321;48.690;9.022;2022-09-20T08:47:26;15.80;99.90
2623;DHT22;1321;48.690;9.022;2022-09-20T08:49:57;15.90;99.90
2623;DHT22;1321;48.690;9.022;2022-09-20T08:52:28;15.90;99.90
2623;DHT22;1321;48.690;9.022;2022-09-20T08:55:12;16.10;99.90
2623;DHT22;1321;48.690;9.022;2022-09-20T08:57:43;16.10;99.90
2623;DHT22;1321;48.690;9.022;2022-09-20T09:00:16;16.20;99.90
2623;DHT22;1321;48.690;9.022;2022-09-20T09:02:45;16.00;99.90
2623;DHT22;1321;48.690;9.022;2022-09-20T09:05:29;15.70;99.90
2623;DHT22;1321;48.690;9.022;2022-09-20T09:08:04;15.50;99.90
2623;DHT22;1321;48.690;9.022;2022-09-20T09:10:35;15.20;99.90
2623;DHT22;1321;48.690;9.022;2022-09-20T09:13:17;15.40;99.90
2623;DHT22;1321;48.690;9.022;2022-09-20T09:15:52;15.30;99.90
2623;DHT22;1321;48.690;9.022;2022-09-20T09:18:21;15.40;99.90
2623;DHT22;1321;48.690;9.022;2022-09-20T09:20:59;15.70;99.90
2623;DHT22;1321;48.690;9.022;2022-09-20T09:23:38;15.60;99.90
2623;DHT22;1321;48.690;9.022;2022-09-20T09:26:15;15.60;99.90
2623;DHT22;1321;48.690;9.022;2022-09-20T09:28:44;15.40;99.90
2623;DHT22;1321;48.690;9.022;2022-09-20T09:31:22;15.20;99.90
2623;DHT22;1321;48.690;9.022;2022-09-20T09:33:51;15.10;99.90
2623;DHT22;1321;48.690;9.022;2022-09-20T09:36:22;14.90;99.90
2623;DHT22;1321;48.690;9.022;2022-09-20T09:39:12;14.70;99.90
2623;DHT22;1321;48.690;9.022;2022-09-20T09:41:43;14.50;99.90
2623;DHT22;1321;48.690;9.022;2022-09-20T09:44:21;14.50;99.90
2623;DHT22;1321;48.690;9.022;2022-09-20T09:46:50;14.30;99.90
2623;DHT22;1321;48.690;9.022;2022-09-20T09:49:20;14.20;99.90
2623;DHT22;1321;48.690;9.022;2022-09-20T09:52:05;14.30;99.90
2623;DHT22;1321;48.690;9.022;2022-09-20T09:54:36;14.50;99.90
2623;DHT22;1321;48.690;9.022;2022-09-20T09:57:18;14.50;99.90
2623;DHT22;1321;48.690;9.022;2022-09-20T10:00:01;14.80;99.90
2623;DHT22;1321;48.690;9.022;2022-09-20T10:03:10;15.20;99.90
2623;DHT22;1321;48.690;9.022;2022-09-20T10:05:49;15.70;99.90
2623;DHT22;1321;48.690;9.022;2022-09-20T10:08:25;15.90;99.90
2623;DHT22;1321;48.690;9.022;2022-09-20T10:11:02;16.00;99.90
2623;DHT22;1321;48.690;9.022;2022-09-20T10:13:40;15.70;99.90
2623;DHT22;1321;48.690;9.022;2022-09-20T10:16:19;15.40;99.90
2623;DHT22;1321;48.690;9.022;2022-09-20T10:18:55;15.60;99.90
2623;DHT22;1321;48.690;9.022;2022-09-20T10:21:38;16.00;99.90
2623;DHT22;1321;48.690;9.022;2022-09-20T10:24:20;16.40;99.90
2623;DHT22;1321;48.690;9.022;2022-09-20T10:27:07;16.70;99.90
2623;DHT22;1321;48.690;9.022;2022-09-20T10:29:49;16.60;99.90
2623;DHT22;1321;48.690;9.022;2022-09-20T10:32:38;16.50;99.90
2623;DHT22;1321;48.690;9.022;2022-09-20T10:35:19;16.10;99.90
2623;DHT22;1321;48.690;9.022;2022-09-20T10:40:59;15.70;99.90
2623;DHT22;1321;48.690;9.022;2022-09-20T10:44:04;15.90;99.90
2623;DHT22;1321;48.690;9.022;2022-09-20T10:46:47;16.40;99.90
2623;DHT22;1321;48.690;9.022;2022-09-20T10:49:27;17.00;99.90
2623;DHT22;1321;48.690;9.022;2022-09-20T10:52:15;17.10;99.90
2623;DHT22;1321;48.690;9.022;2022-09-20T10:55:00;17.30;99.90
2623;DHT22;1321;48.690;9.022;2022-09-20T10:57:50;17.10;99.90
2623;DHT22;1321;48.690;9.022;2022-09-20T11:00:22;16.90;99.90
2623;DHT22;1321;48.690;9.022;2022-09-20T11:03:03;16.70;99.90
2623;DHT22;1321;48.690;9.022;2022-09-20T11:05:42;16.40;99.90
2623;DHT22;1321;48.690;9.022;2022-09-20T11:08:16;16.10;99.90
2623;DHT22;1321;48.690;9.022;2022-09-20T11:10:50;16.10;99.90
2623;DHT22;1321;48.690;9.022;2022-09-20T11:13:25;15.90;99.90
2623;DHT22;1321;48.690;9.022;2022-09-20T11:15:57;15.70;99.90
2623;DHT22;1321;48.690;9.022;2022-09-20T11:18:35;15.70;99.90
2623;DHT22;1321;48.690;9.022;2022-09-20T11:21:09;15.70;99.90
2623;DHT22;1321;48.690;9.022;2022-09-20T11:23:45;15.40;99.90
2623;DHT22;1321;48.690;9.022;2022-09-20T11:26:24;15.50;99.90
2623;DHT22;1321;48.690;9.022;2022-09-20T11:28:56;15.70;99.90
2623;DHT22;1321;48.690;9.022;2022-09-20T11:31:27;15.80;99.90
2623;DHT22;1321;48.690;9.022;2022-09-20T11:34:02;16.00;99.90
2623;DHT22;1321;48.690;9.022;2022-09-20T11:36:40;16.00;99.90
2623;DHT22;1321;48.690;9.022;2022-09-20T11:39:13;16.20;99.90
2623;DHT22;1321;48.690;9.022;2022-09-20T11:41:42;16.10;99.90
2623;DHT22;1321;48.690;9.022;2022-09-20T11:44:13;16.20;99.90
2623;DHT22;1321;48.690;9.022;2022-09-20T11:46:47;16.10;99.90
2623;DHT22;1321;48.690;9.022;2022-09-20T11:49:23;16.10;99.90
2623;DHT22;1321;48.690;9.022;2022-09-20T11:52:23;16.00;99.90
2623;DHT22;1321;48.690;9.022;2022-09-20T11:55:09;16.00;99.90
2623;DHT22;1321;48.690;9.022;2022-09-20T11:57:40;15.90;99.90
2623;DHT22;1321;48.690;9.022;2022-09-20T12:00:09;16.10;99.90
2623;DHT22;1321;48.690;9.022;2022-09-20T12:02:45;16.10;99.90
2623;DHT22;1321;48.690;9.022;2022-09-20T12:05:30;16.30;99.90
2623;DHT22;1321;48.690;9.022;2022-09-20T12:08:00;16.40;99.90
2623;DHT22;1321;48.690;9.022;2022-09-20T12:10:31;16.50;99.90
2623;DHT22;1321;48.690;9.022;2022-09-20T12:13:02;16.70;99.90
2623;DHT22;1321;48.690;9.022;2022-09-20T12:15:33;16.90;99.90
2623;DHT22;1321;48.690;9.022;2022-09-20T12:18:13;16.80;99.90
2623;DHT22;1321;48.690;9.022;2022-09-20T12:21:14;16.90;99.90
2623;DHT22;1321;48.690;9.022;2022-09-20T12:24:00;16.50;99.90
2623;DHT22;1321;48.690;9.022;2022-09-20T12:26:38;16.50;99.90
2623;DHT22;1321;48.690;9.022;2022-09-20T12:41:47;16.50;99.90
2623;DHT22;1321;48.690;9.022;2022-09-20T12:44:29;16.60;99.90
2623;DHT22;1321;48.690;9.022;2022-09-20T12:47:01;16.50;99.90
2623;DHT22;1321;48.690;9.022;2022-09-20T12:49:40;16.50;99.90
2623;DHT22;1321;48.690;9.022;2022-09-20T12:52:34;16.60;99.90
2623;DHT22;1321;48.690;9.022;2022-09-20T12:55:35;16.80;99.90
2623;DHT22;1321;48.690;9.022;2022-09-20T12:58:18;17.00;99.90
2623;DHT22;1321;48.690;9.022;2022-09-20T13:00:51;17.10;99.90
2623;DHT22;1321;48.690;9.022;2022-09-20T13:03:42;17.10;99.90
2623;DHT22;1321;48.690;9.022;2022-09-20T13:06:22;17.20;99.90
2623;DHT22;1321;48.690;9.022;2022-09-20T13:09:01;17.30;99.90
2623;DHT22;1321;48.690;9.022;2022-09-20T13:11:37;17.30;99.90
2623;DHT22;1321;48.690;9.022;2022-09-20T13:14:11;17.10;99.90
2623;DHT22;1321;48.690;9.022;2022-09-20T13:16:48;17.10;99.90
2623;DHT22;1321;48.690;9.022;2022-09-20T13:19:19;17.10;99.90
2623;DHT22;1321;48.690;9.022;2022-09-20T13:21:54;17.20;99.90
2623;DHT22;1321;48.690;9.022;2022-09-20T13:24:25;17.10;99.90
2623;DHT22;1321;48.690;9.022;2022-09-20T13:27:00;17.20;99.90
2623;DHT22;1321;48.690;9.022;2022-09-20T13:29:31;17.30;99.90
2623;DHT22;1321;48.690;9.022;2022-09-20T13:32:15;17.30;99.90
2623;DHT22;1321;48.690;9.022;2022-09-20T13:34:44;17.20;99.90
2623;DHT22;1321;48.690;9.022;2022-09-20T13:37:17;17.20;99.90
2623;DHT22;1321;48.690;9.022;2022-09-20T13:39:52;17.10;99.90
2623;DHT22;1321;48.690;9.022;2022-09-20T13:42:22;16.60;99.50
2623;DHT22;1321;48.690;9.022;2022-09-20T13:44:50;16.60;98.20
2623;DHT22;1321;48.690;9.022;2022-09-20T13:47:23;16.60;98.10
2623;DHT22;1321;48.690;9.022;2022-09-20T13:49:57;16.50;98.70
2623;DHT22;1321;48.690;9.022;2022-09-20T13:52:28;16.50;98.90
2623;DHT22;1321;48.690;9.022;2022-09-20T13:54:57;16.40;98.00
2623;DHT22;1321;48.690;9.022;2022-09-20T13:57:28;16.30;97.30
2623;DHT22;1321;48.690;9.022;2022-09-20T13:59:57;16.30;98.90
2623;DHT22;1321;48.690;9.022;2022-09-20T14:02:30;16.30;99.00
2623;DHT22;1321;48.690;9.022;2022-09-20T14:05:00;16.30;99.50
2623;DHT22;1321;48.690;9.022;2022-09-20T14:07:29;16.20;99.00
2623;DHT22;1321;48.690;9.022;2022-09-20T14:09:58;16.20;98.10
2623;DHT22;1321;48.690;9.022;2022-09-20T14:12:28;16.10;98.60
2623;DHT22;1321;48.690;9.022;2022-09-20T14:14:57;16.00;99.70
2623;DHT22;1321;48.690;9.022;2022-09-20T14:17:29;15.90;99.90
2623;DHT22;1321;48.690;9.022;2022-09-20T14:19:58;15.90;99.90
2623;DHT22;1321;48.690;9.022;2022-09-20T14:22:27;15.80;99.90
2623;DHT22;1321;48.690;9.022;2022-09-20T14:24:58;15.60;99.90
2623;DHT22;1321;48.690;9.022;2022-09-20T14:27:28;15.60;99.90
2623;DHT22;1321;48.690;9.022;2022-09-20T14:29:57;15.60;99.90
2623;DHT22;1321;48.690;9.022;2022-09-20T14:32:42;15.40;99.90
2623;DHT22;1321;48.690;9.022;2022-09-20T14:35:15;15.40;99.90
2623;DHT22;1321;48.690;9.022;2022-09-20T14:37:45;15.30;99.90
2623;DHT22;1321;48.690;9.022;2022-09-20T14:40:20;15.30;99.90
2623;DHT22;1321;48.690;9.022;2022-09-20T14:42:55;15.40;99.90
2623;DHT22;1321;48.690;9.022;2022-09-20T14:45:30;15.30;99.90
2623;DHT22;1321;48.690;9.022;2022-09-20T14:48:01;15.30;99.90
2623;DHT22;1321;48.690;9.022;2022-09-20T14:50:38;15.30;99.90
2623;DHT22;1321;48.690;9.022;2022-09-20T14:53:22;15.30;99.90
2623;DHT22;1321;48.690;9.022;2022-09-20T14:56:10;15.20;99.90
2623;DHT22;1321;48.690;9.022;2022-09-20T14:59:20;15.30;99.90
2623;DHT22;1321;48.690;9.022;2022-09-20T15:01:58;15.30;99.90
2623;DHT22;1321;48.690;9.022;2022-09-20T15:04:28;15.30;99.90
2623;DHT22;1321;48.690;9.022;2022-09-20T15:07:00;15.40;99.90
2623;DHT22;1321;48.690;9.022;2022-09-20T15:09:29;15.30;99.90
2623;DHT22;1321;48.690;9.022;2022-09-20T15:11:59;15.50;99.90
2623;DHT22;1321;48.690;9.022;2022-09-20T15:14:28;15.60;99.90
2623;DHT22;1321;48.690;9.022;2022-09-20T15:17:03;15.80;99.90
2623;DHT22;1321;48.690;9.022;2022-09-20T15:19:31;15.80;99.90
2623;DHT22;1321;48.690;9.022;2022-09-20T15:22:00;15.90;99.90
2623;DHT22;1321;48.690;9.022;2022-09-20T15:24:28;16.00;99.90
2623;DHT22;1321;48.690;9.022;2022-09-20T15:26:56;16.00;99.90
2623;DHT22;1321;48.690;9.022;2022-09-20T15:29:24;15.90;99.90
2623;DHT22;1321;48.690;9.022;2022-09-20T15:31:54;15.90;99.90
2623;DHT22;1321;48.690;9.022;2022-09-20T15:34:22;15.70;99.90
2623;DHT22;1321;48.690;9.022;2022-09-20T15:36:50;15.90;99.90
2623;DHT22;1321;48.690;9.022;2022-09-20T15:39:19;15.90;99.90
2623;DHT22;1321;48.690;9.022;2022-09-20T15:41:50;15.80;99.90
2623;DHT22;1321;48.690;9.022;2022-09-20T15:44:19;15.70;99.90
2623;DHT22;1321;48.690;9.022;2022-09-20T15:46:49;15.90;99.90
2623;DHT22;1321;48.690;9.022;2022-09-20T15:49:18;15.80;99.90
2623;DHT22;1321;48.690;9.022;2022-09-20T15:51:47;15.90;99.90
2623;DHT22;1321;48.690;9.022;2022-09-20T15:54:16;15.80;99.90
2623;DHT22;1321;48.690;9.022;2022-09-20T15:56:44;15.90;99.90
2623;DHT22;1321;48.690;9.022;2022-09-20T15:59:12;15.80;99.90
2623;DHT22;1321;48.690;9.022;2022-09-20T16:01:43;15.80;99.90
2623;DHT22;1321;48.690;9.022;2022-09-20T16:04:15;15.60;99.90
2623;DHT22;1321;48.690;9.022;2022-09-20T16:06:47;15.60;99.90
2623;DHT22;1321;48.690;9.022;2022-09-20T16:09:16;15.50;99.90
2623;DHT22;1321;48.690;9.022;2022-09-20T16:11:45;15.50;99.90
2623;DHT22;1321;48.690;9.022;2022-09-20T16:14:14;15.40;99.90
2623;DHT22;1321;48.690;9.022;2022-09-20T16:16:42;15.50;99.90
2623;DHT22;1321;48.690;9.022;2022-09-20T16:19:10;15.40;99.40
2623;DHT22;1321;48.690;9.022;2022-09-20T16:21:46;15.30;99.50
2623;DHT22;1321;48.690;9.022;2022-09-20T16:24:23;15.30;99.90
2623;DHT22;1321;48.690;9.022;2022-09-20T16:26:52;15.40;99.90
2623;DHT22;1321;48.690;9.022;2022-09-20T16:29:20;15.30;99.90
2623;DHT22;1321;48.690;9.022;2022-09-20T16:31:50;15.20;99.90
2623;DHT22;1321;48.690;9.022;2022-09-20T16:34:19;15.30;99.90
2623;DHT22;1321;48.690;9.022;2022-09-20T16:36:50;15.20;99.90
2623;DHT22;1321;48.690;9.022;2022-09-20T16:39:19;15.20;99.90
2623;DHT22;1321;48.690;9.022;2022-09-20T16:41:54;15.10;99.30
2623;DHT22;1321;48.690;9.022;2022-09-20T16:44:23;15.00;99.90
2623;DHT22;1321;48.690;9.022;2022-09-20T16:46:51;14.80;99.60
2623;DHT22;1321;48.690;9.022;2022-09-20T16:49:19;14.80;99.90
2623;DHT22;1321;48.690;9.022;2022-09-20T16:51:51;14.80;99.90
2623;DHT22;1321;48.690;9.022;2022-09-20T16:54:20;14.70;99.90
2623;DHT22;1321;48.690;9.022;2022-09-20T16:56:49;14.60;99.90
2623;DHT22;1321;48.690;9.022;2022-09-20T16:59:19;14.50;99.90
2623;DHT22;1321;48.690;9.022;2022-09-20T17:01:48;14.40;99.90
2623;DHT22;1321;48.690;9.022;2022-09-20T17:04:17;14.50;99.90
2623;DHT22;1321;48.690;9.022;2022-09-20T17:06:47;14.50;99.90
2623;DHT22;1321;48.690;9.022;2022-09-20T17:09:17;14.30;99.90
2623;DHT22;1321;48.690;9.022;2022-09-20T17:11:48;14.20;99.90
2623;DHT22;1321;48.690;9.022;2022-09-20T17:14:18;14.00;99.90
2623;DHT22;1321;48.690;9.022;2022-09-20T17:16:47;13.90;99.90
2623;DHT22;1321;48.690;9.022;2022-09-20T17:19:17;13.90;99.90
2623;DHT22;1321;48.690;9.022;2022-09-20T17:21:47;14.00;99.90
2623;DHT22;1321;48.690;9.022;2022-09-20T17:24:19;14.00;99.90
2623;DHT22;1321;48.690;9.022;2022-09-20T17:26:48;13.80;99.90
2623;DHT22;1321;48.690;9.022;2022-09-20T17:29:17;13.80;99.90
2623;DHT22;1321;48.690;9.022;2022-09-20T17:31:47;13.60;99.90
2623;DHT22;1321;48.690;9.022;2022-09-20T17:34:21;13.50;99.90
2623;DHT22;1321;48.690;9.022;2022-09-20T17:36:51;13.60;99.90
2623;DHT22;1321;48.690;9.022;2022-09-20T17:39:22;13.40;99.90
2623;DHT22;1321;48.690;9.022;2022-09-20T17:41:50;13.50;99.90